createdAt,value
2023-05-02T00:00:37.932Z,7.04
2023-05-02T00:03:24.138Z,6.99
2023-05-02T00:06:00.968Z,6.96
2023-05-02T00:08:37.544Z,6.93
2023-05-02T00:11:14.550Z,6.92
2023-05-02T00:13:50.915Z,6.91
2023-05-02T00:16:27.439Z,6.89
2023-05-02T00:19:03.895Z,6.89
2023-05-02T00:21:40.421Z,6.87
2023-05-02T00:24:16.883Z,6.86
2023-05-02T00:26:53.519Z,6.86
2023-05-02T00:29:30.150Z,6.84
2023-05-02T00:32:06.972Z,6.82
2023-05-02T00:34:43.359Z,6.80
2023-05-02T00:37:20.153Z,6.76
2023-05-02T00:39:56.504Z,6.75
2023-05-02T00:42:36.197Z,6.73
2023-05-02T00:45:14.402Z,6.72
2023-05-02T00:47:50.773Z,6.73
2023-05-02T00:50:30.225Z,6.72
2023-05-02T00:53:08.283Z,6.71
2023-05-02T00:55:44.778Z,6.71
2023-05-02T00:58:22.910Z,6.73
2023-05-02T01:01:23.311Z,6.74
2023-05-02T01:04:23.114Z,6.72
2023-05-02T01:07:42.446Z,6.73
2023-05-02T01:10:37.491Z,6.73
2023-05-02T01:13:22.256Z,6.73
2023-05-02T01:16:04.717Z,6.73
2023-05-02T01:18:45.061Z,6.72
2023-05-02T01:21:21.558Z,6.69
2023-05-02T01:24:15.718Z,6.66
2023-05-02T01:27:24.196Z,6.66
2023-05-02T01:30:04.606Z,6.65
2023-05-02T01:32:45.072Z,6.63
2023-05-02T01:35:24.312Z,6.63
2023-05-02T01:38:03.808Z,6.64
2023-05-02T01:40:43.246Z,6.64
2023-05-02T01:43:22.688Z,6.64
2023-05-02T01:46:02.087Z,6.61
2023-05-02T01:48:40.206Z,6.59
2023-05-02T01:51:19.146Z,6.58
2023-05-02T01:53:57.709Z,6.55
2023-05-02T01:56:37.917Z,6.52
2023-05-02T01:59:19.833Z,6.50
2023-05-02T02:01:57.675Z,6.46
2023-05-02T02:04:36.276Z,6.44
2023-05-02T02:07:17.630Z,6.42
2023-05-02T02:09:54.406Z,6.40
2023-05-02T02:12:37.883Z,6.41
2023-05-02T02:15:26.478Z,6.39
2023-05-02T02:18:11.633Z,6.39
2023-05-02T02:20:51.999Z,6.38
2023-05-02T02:23:34.302Z,6.38
2023-05-02T02:26:11.699Z,6.38
2023-05-02T02:28:49.251Z,6.37
2023-05-02T02:31:26.397Z,6.36
2023-05-02T02:34:03.616Z,6.34
2023-05-02T02:36:49.337Z,6.31
2023-05-02T02:39:45.500Z,6.27
2023-05-02T02:42:35.289Z,6.21
2023-05-02T02:45:31.265Z,6.16
2023-05-02T02:48:28.071Z,6.12
2023-05-02T02:51:16.121Z,6.07
2023-05-02T02:54:25.933Z,6.01
2023-05-02T02:57:26.081Z,5.95
2023-05-02T03:00:13.267Z,5.89
2023-05-02T03:02:53.309Z,5.82
2023-05-02T03:05:30.529Z,5.79
2023-05-02T03:08:07.657Z,5.76
2023-05-02T03:10:44.050Z,5.73
2023-05-02T03:13:20.510Z,5.70
2023-05-02T03:16:42.832Z,5.67
2023-05-02T03:19:21.692Z,5.65
2023-05-02T03:21:58.556Z,5.63
2023-05-02T03:24:34.920Z,5.63
2023-05-02T03:27:12.391Z,5.65
2023-05-02T03:29:49.880Z,5.65
2023-05-02T03:32:26.947Z,5.68
2023-05-02T03:35:04.044Z,5.73
2023-05-02T03:37:41.415Z,5.80
2023-05-02T03:40:21.836Z,5.85
2023-05-02T03:42:58.571Z,5.91
2023-05-02T03:45:37.480Z,5.97
2023-05-02T03:48:13.932Z,6.06
2023-05-02T03:50:51.097Z,6.15
2023-05-02T03:53:28.030Z,6.23
2023-05-02T03:56:08.103Z,6.36
2023-05-02T03:58:51.030Z,6.52
2023-05-02T04:01:28.527Z,6.73
2023-05-02T04:04:06.532Z,6.93
2023-05-02T04:06:47.509Z,7.19
2023-05-02T04:09:25.536Z,7.42
2023-05-02T04:12:18.109Z,7.64
2023-05-02T04:14:57.715Z,7.86
2023-05-02T04:17:39.098Z,8.07
2023-05-02T04:20:18.533Z,8.30
2023-05-02T04:22:58.503Z,8.58
2023-05-02T04:25:35.743Z,8.86
2023-05-02T04:28:13.258Z,9.14
2023-05-02T04:30:50.027Z,9.41
2023-05-02T04:33:28.629Z,9.63
2023-05-02T04:36:05.716Z,9.86
2023-05-02T04:38:43.123Z,10.13
2023-05-02T04:41:21.626Z,10.42
2023-05-02T04:44:03.836Z,10.78
2023-05-02T04:46:40.580Z,11.14
2023-05-02T04:49:16.926Z,11.55
2023-05-02T04:51:53.781Z,11.97
2023-05-02T04:54:31.328Z,12.41
2023-05-02T04:57:08.251Z,12.85
2023-05-02T04:59:46.991Z,13.34
2023-05-02T05:02:23.448Z,13.87
2023-05-02T05:05:02.207Z,14.40
2023-05-02T05:07:38.665Z,14.95
2023-05-02T05:10:16.001Z,15.46
2023-05-02T05:12:55.167Z,15.99
2023-05-02T05:15:31.740Z,16.46
2023-05-02T05:18:10.257Z,16.74
2023-05-02T05:20:46.904Z,16.93
2023-05-02T05:23:23.468Z,17.27
2023-05-02T05:26:00.018Z,17.64
2023-05-02T05:28:36.612Z,18.04
2023-05-02T05:31:17.207Z,18.40
2023-05-02T05:33:56.640Z,18.63
2023-05-02T05:36:33.775Z,18.92
2023-05-02T05:39:12.150Z,19.34
2023-05-02T05:41:50.307Z,19.83
2023-05-02T05:44:27.078Z,20.19
2023-05-02T05:47:03.608Z,20.42
2023-05-02T05:49:40.142Z,20.64
2023-05-02T05:52:19.459Z,20.82
2023-05-02T05:54:58.245Z,20.99
2023-05-02T05:57:36.398Z,21.31
2023-05-02T06:00:18.158Z,21.41
2023-05-02T06:02:56.234Z,21.61
2023-05-02T06:05:37.284Z,21.89
2023-05-02T06:08:13.671Z,22.10
2023-05-02T06:10:50.689Z,22.35
2023-05-02T06:13:27.382Z,22.55
2023-05-02T06:16:09.105Z,22.88
2023-05-02T06:18:45.388Z,23.05
2023-05-02T06:21:23.555Z,23.18
2023-05-02T06:24:00.038Z,23.43
2023-05-02T06:26:36.509Z,23.69
2023-05-02T06:29:12.852Z,23.90
2023-05-02T06:31:51.216Z,23.99
2023-05-02T06:34:27.619Z,24.17
2023-05-02T06:37:04.093Z,24.34
2023-05-02T06:39:42.747Z,24.31
2023-05-02T06:42:19.003Z,24.45
2023-05-02T06:44:56.110Z,24.59
2023-05-02T06:47:32.653Z,24.86
2023-05-02T06:50:11.746Z,25.04
2023-05-02T06:52:48.049Z,25.17
2023-05-02T06:55:24.479Z,25.40
2023-05-02T06:58:01.028Z,25.44
2023-05-02T07:00:37.467Z,25.49
2023-05-02T07:03:13.965Z,25.74
2023-05-02T07:05:50.353Z,25.58
2023-05-02T07:08:28.456Z,25.17
2023-05-02T07:11:05.091Z,24.84
2023-05-02T07:13:41.362Z,24.67
2023-05-02T07:16:17.854Z,24.47
2023-05-02T07:18:54.110Z,24.18
2023-05-02T07:21:30.806Z,23.89
2023-05-02T07:24:08.001Z,23.65
2023-05-02T07:26:44.208Z,23.61
2023-05-02T07:29:20.657Z,23.71
2023-05-02T07:31:57.123Z,23.77
2023-05-02T07:34:33.420Z,23.74
2023-05-02T07:37:09.819Z,23.56
2023-05-02T07:39:46.379Z,23.35
2023-05-02T07:42:22.662Z,23.20
2023-05-02T07:44:59.206Z,22.98
2023-05-02T07:47:38.928Z,22.84
2023-05-02T07:50:17.119Z,22.66
2023-05-02T07:52:53.545Z,22.45
2023-05-02T07:55:31.464Z,22.30
2023-05-02T07:58:08.067Z,22.14
2023-05-02T08:00:44.586Z,21.91
2023-05-02T08:03:21.221Z,21.73
2023-05-02T08:05:57.983Z,21.65
2023-05-02T08:08:34.404Z,21.49
2023-05-02T08:11:10.848Z,21.35
2023-05-02T08:13:47.374Z,21.16
2023-05-02T08:16:24.406Z,21.01
2023-05-02T08:19:00.774Z,20.89
2023-05-02T08:21:37.270Z,20.81
2023-05-02T08:24:13.857Z,20.71
2023-05-02T08:26:50.905Z,20.66
2023-05-02T08:29:28.036Z,20.66
2023-05-02T08:32:07.937Z,20.71
2023-05-02T08:34:45.170Z,20.75
2023-05-02T08:37:22.345Z,20.80
2023-05-02T08:39:59.762Z,20.86
2023-05-02T08:42:39.552Z,20.92
2023-05-02T08:45:31.036Z,20.97
2023-05-02T08:48:17.032Z,21.14
2023-05-02T08:50:56.454Z,21.27
2023-05-02T08:53:36.466Z,21.48
2023-05-02T08:56:16.956Z,21.83
2023-05-02T08:58:56.009Z,22.05
2023-05-02T09:01:46.533Z,22.23
2023-05-02T09:04:30.667Z,22.32
2023-05-02T09:07:08.736Z,22.33
2023-05-02T09:09:47.244Z,22.29
2023-05-02T09:12:30.003Z,22.17
2023-05-02T09:15:24.183Z,22.16
2023-05-02T09:18:03.166Z,22.30
2023-05-02T09:20:46.538Z,22.47
2023-05-02T09:23:35.940Z,22.46
2023-05-02T09:26:28.836Z,22.44
2023-05-02T09:29:08.450Z,22.52
2023-05-02T09:31:56.365Z,22.45
2023-05-02T09:34:34.980Z,22.40
2023-05-02T09:37:13.765Z,22.36
2023-05-02T09:40:12.620Z,22.29
2023-05-02T09:42:49.879Z,22.21
2023-05-02T09:45:31.450Z,22.22
2023-05-02T09:48:10.110Z,22.14
2023-05-02T09:50:48.229Z,21.97
2023-05-02T09:53:30.429Z,21.92
2023-05-02T09:56:11.606Z,21.86
2023-05-02T09:58:51.372Z,21.66
2023-05-02T10:01:29.531Z,21.53
2023-05-02T10:04:11.453Z,21.45
2023-05-02T10:06:51.835Z,21.44
2023-05-02T10:09:32.815Z,21.52
2023-05-02T10:12:11.304Z,21.65
2023-05-02T10:15:00.155Z,21.86
2023-05-02T10:17:49.569Z,22.17
2023-05-02T10:20:37.355Z,22.52
2023-05-02T10:23:16.378Z,22.88
2023-05-02T10:25:54.542Z,23.15
2023-05-02T10:28:33.424Z,23.37
2023-05-02T10:31:13.252Z,23.56
2023-05-02T10:33:57.361Z,23.78
2023-05-02T10:36:37.512Z,23.97
2023-05-02T10:39:17.305Z,23.88
2023-05-02T10:41:59.471Z,23.85
2023-05-02T10:44:46.321Z,23.88
2023-05-02T10:47:30.545Z,24.02
2023-05-02T10:50:10.476Z,24.23
2023-05-02T10:52:47.512Z,24.45
2023-05-02T10:55:26.989Z,24.56
2023-05-02T10:58:27.204Z,24.67
2023-05-02T11:01:42.240Z,24.78
2023-05-02T11:04:19.884Z,24.86
2023-05-02T11:07:23.320Z,24.96
2023-05-02T11:10:30.155Z,25.11
2023-05-02T11:13:07.098Z,25.25
2023-05-02T11:16:02.711Z,25.37
2023-05-02T11:19:05.390Z,25.24
2023-05-02T11:21:42.236Z,25.19
2023-05-02T11:24:44.904Z,25.21
2023-05-02T11:27:47.906Z,25.08
2023-05-02T11:30:43.946Z,25.08
2023-05-02T11:33:24.483Z,25.25
2023-05-02T11:36:01.335Z,25.19
2023-05-02T11:38:43.367Z,25.25
2023-05-02T11:41:20.190Z,25.36
2023-05-02T11:44:08.858Z,25.58
2023-05-02T11:46:48.115Z,25.64
2023-05-02T11:49:25.059Z,25.57
2023-05-02T11:52:04.457Z,25.55
2023-05-02T11:54:41.413Z,25.63
2023-05-02T11:57:18.115Z,25.69
2023-05-02T12:00:01.818Z,25.55
2023-05-02T12:02:48.970Z,25.34
2023-05-02T12:05:34.361Z,25.19
2023-05-02T12:08:21.958Z,25.08
2023-05-02T12:11:00.443Z,25.01
2023-05-02T12:13:45.540Z,24.92
2023-05-02T12:16:24.150Z,24.99
2023-05-02T12:19:01.725Z,25.09
2023-05-02T12:21:38.788Z,25.25
2023-05-02T12:24:15.539Z,25.40
2023-05-02T12:27:09.833Z,25.49
2023-05-02T12:29:50.290Z,25.55
2023-05-02T12:32:38.267Z,25.54
2023-05-02T12:35:27.653Z,25.49
2023-05-02T12:38:17.825Z,25.40
2023-05-02T12:40:58.652Z,25.09
2023-05-02T12:43:49.771Z,24.85
2023-05-02T12:46:25.193Z,24.68
2023-05-02T12:49:12.648Z,24.48
2023-05-02T12:52:00.341Z,24.30
2023-05-02T12:54:37.429Z,24.14
2023-05-02T12:57:26.075Z,23.96
2023-05-02T13:00:03.535Z,23.73
2023-05-02T13:02:43.332Z,23.57
2023-05-02T13:05:24.953Z,23.36
2023-05-02T13:08:02.519Z,23.17
2023-05-02T13:10:39.722Z,23.00
2023-05-02T13:13:16.936Z,22.91
2023-05-02T13:15:54.199Z,22.68
2023-05-02T13:18:31.207Z,22.43
2023-05-02T13:21:08.043Z,22.24
2023-05-02T13:23:45.942Z,22.13
2023-05-02T13:26:23.313Z,21.96
2023-05-02T13:29:00.280Z,21.75
2023-05-02T13:31:39.640Z,21.51
2023-05-02T13:34:16.170Z,21.20
2023-05-02T13:36:52.742Z,20.96
2023-05-02T13:39:29.671Z,20.77
2023-05-02T13:42:06.775Z,20.43
2023-05-02T13:44:43.887Z,19.98
2023-05-02T13:47:21.652Z,19.52
2023-05-02T13:49:58.871Z,19.11
2023-05-02T13:52:35.651Z,18.80
2023-05-02T13:55:13.685Z,18.49
2023-05-02T13:57:51.015Z,18.18
2023-05-02T14:00:29.287Z,17.92
2023-05-02T14:03:07.185Z,17.62
2023-05-02T14:05:44.672Z,17.32
2023-05-02T14:08:21.642Z,17.06
2023-05-02T14:10:58.664Z,16.77
2023-05-02T14:13:35.063Z,16.49
2023-05-02T14:16:12.531Z,16.28
2023-05-02T14:18:50.166Z,16.08
2023-05-02T14:21:27.393Z,15.85
2023-05-02T14:24:04.406Z,15.69
2023-05-02T14:26:41.151Z,15.50
2023-05-02T14:29:18.603Z,15.31
2023-05-02T14:31:55.724Z,15.16
2023-05-02T14:34:32.866Z,15.01
2023-05-02T14:37:11.179Z,14.88
2023-05-02T14:39:50.829Z,14.72
2023-05-02T14:42:28.876Z,14.62
2023-05-02T14:45:06.654Z,14.56
2023-05-02T14:47:43.877Z,14.51
2023-05-02T14:50:21.818Z,14.43
2023-05-02T14:52:59.778Z,14.35
2023-05-02T14:55:41.789Z,14.25
2023-05-02T14:58:20.756Z,14.14
2023-05-02T15:01:00.807Z,14.05
2023-05-02T15:03:52.362Z,13.95
2023-05-02T15:06:37.353Z,13.85
2023-05-02T15:09:14.251Z,13.77
2023-05-02T15:11:54.025Z,13.70
2023-05-02T15:14:30.920Z,13.69
2023-05-02T15:17:08.068Z,13.72
2023-05-02T15:19:44.883Z,13.78
2023-05-02T15:22:24.293Z,13.90
2023-05-02T15:25:01.391Z,13.98
2023-05-02T15:27:40.218Z,14.04
2023-05-02T15:30:19.537Z,14.11
2023-05-02T15:32:59.553Z,14.19
2023-05-02T15:35:36.975Z,14.23
2023-05-02T15:38:14.297Z,14.26
2023-05-02T15:41:00.263Z,14.29
2023-05-02T15:43:37.477Z,14.34
2023-05-02T15:46:14.683Z,14.36
2023-05-02T15:48:51.539Z,14.40
2023-05-02T15:51:28.189Z,14.43
2023-05-02T15:54:07.037Z,14.46
2023-05-02T15:56:44.614Z,14.48
2023-05-02T15:59:21.569Z,14.52
2023-05-02T16:01:58.336Z,14.53
2023-05-02T16:04:35.114Z,14.55
2023-05-02T16:07:11.758Z,14.56
2023-05-02T16:09:48.361Z,14.56
2023-05-02T16:12:26.337Z,14.58
2023-05-02T16:15:03.964Z,14.59
2023-05-02T16:17:42.979Z,14.59
2023-05-02T16:20:21.202Z,14.58
2023-05-02T16:22:57.904Z,14.57
2023-05-02T16:25:36.124Z,14.57
2023-05-02T16:28:15.940Z,14.58
2023-05-02T16:30:53.505Z,14.57
2023-05-02T16:33:31.371Z,14.55
2023-05-02T16:36:11.725Z,14.56
2023-05-02T16:38:49.310Z,14.56
2023-05-02T16:41:26.866Z,14.51
2023-05-02T16:44:03.887Z,14.48
2023-05-02T16:46:41.546Z,14.46
2023-05-02T16:49:18.528Z,14.46
2023-05-02T16:51:56.191Z,14.45
2023-05-02T16:54:33.042Z,14.46
2023-05-02T16:57:10.896Z,14.44
2023-05-02T16:59:48.592Z,14.39
2023-05-02T17:02:25.866Z,14.37
2023-05-02T17:05:02.524Z,14.31
2023-05-02T17:07:40.131Z,14.27
2023-05-02T17:10:19.515Z,14.22
2023-05-02T17:13:01.900Z,14.16
2023-05-02T17:15:42.819Z,14.11
2023-05-02T17:18:19.748Z,14.05
2023-05-02T17:20:58.077Z,14.01
2023-05-02T17:23:37.414Z,13.95
2023-05-02T17:26:15.698Z,13.88
2023-05-02T17:28:53.755Z,13.85
2023-05-02T17:31:30.928Z,13.84
2023-05-02T17:34:08.800Z,13.80
2023-05-02T17:36:46.453Z,13.74
2023-05-02T17:39:25.466Z,13.73
2023-05-02T17:42:02.741Z,13.69
2023-05-02T17:44:42.375Z,13.68
2023-05-02T17:47:20.180Z,13.67
2023-05-02T17:50:00.164Z,13.63
2023-05-02T17:52:38.948Z,13.59
2023-05-02T17:55:19.805Z,13.58
